Time;durP1;ratioP1;P1;durP2;ratioP2;P2;SDS_P1;SDS_P2;PMS_P1;PMS_P2;Temp;Humidity;BMP_temperature;BMP_pressure;BME280_temperature;BME280_humidity;BME280_pressure;Samples;Min_cycle;Max_cycle;Signal;HPM_P1;HPM_P2
2022/01/04 00:00:15;;;;;;;2.80;0.90;;;-16.10;99.90;;;;;;2220249;64;20088;-33
2022/01/04 00:02:47;;;;;;;3.73;0.80;;;-16.10;99.90;;;;;;2219971;64;20096;-31
2022/01/04 00:05:26;;;;;;;7.87;1.43;;;-16.00;99.90;;;;;;2220386;64;20437;-30
2022/01/04 00:07:57;;;;;;;3.50;1.27;;;-16.10;99.90;;;;;;2220213;64;20120;-31
2022/01/04 00:10:29;;;;;;;6.17;0.77;;;-16.00;99.90;;;;;;2223370;64;20095;-30
2022/01/04 00:15:54;;;;;;;5.23;0.73;;;-16.00;99.90;;;;;;2220430;64;20134;-44
2022/01/04 00:18:27;;;;;;;5.00;2.00;;;-16.00;99.90;;;;;;2220379;64;20092;-34
2022/01/04 00:20:59;;;;;;;1.47;0.60;;;-16.00;99.90;;;;;;2220097;64;20437;-34
2022/01/04 00:23:31;;;;;;;2.13;0.97;;;-15.80;99.90;;;;;;2223434;64;20548;-31
2022/01/04 00:26:05;;;;;;;3.53;1.13;;;-15.80;99.90;;;;;;2219493;64;20089;-31
2022/01/04 00:28:41;;;;;;;7.10;0.80;;;-15.80;99.90;;;;;;2219478;64;20096;-32
2022/01/04 00:31:13;;;;;;;2.97;1.00;;;-15.90;99.90;;;;;;2219453;64;20520;-32
2022/01/04 00:33:45;;;;;;;3.23;0.80;;;-15.90;99.90;;;;;;2219549;64;20119;-30
2022/01/04 00:36:17;;;;;;;1.47;0.80;;;-15.90;99.90;;;;;;2219637;64;20089;-30
2022/01/04 00:38:55;;;;;;;3.07;1.27;;;-16.00;99.90;;;;;;2219592;64;20081;-33
2022/01/04 00:41:28;;;;;;;5.00;0.97;;;-16.00;99.90;;;;;;2216247;64;20195;-32
2022/01/04 00:43:59;;;;;;;5.50;1.27;;;-16.00;99.90;;;;;;2216369;64;20179;-33
2022/01/04 00:46:35;;;;;;;1.47;0.70;;;-16.00;99.90;;;;;;2219346;64;20100;-34
2022/01/04 00:49:10;;;;;;;1.73;0.95;;;-16.10;99.90;;;;;;2219355;64;20482;-32
2022/01/04 00:51:44;;;;;;;1.57;0.63;;;-16.00;99.90;;;;;;2216353;64;20172;-31
2022/01/04 00:54:21;;;;;;;4.20;0.90;;;-16.00;99.90;;;;;;2216397;64;20646;-30
2022/01/04 00:56:55;;;;;;;;;;;-16.00;99.90;;;;;;2216570;64;20712;-34
2022/01/04 00:59:26;;;;;;;1.70;0.47;;;-16.10;99.90;;;;;;2216350;64;19969;-36
2022/01/04 01:01:59;;;;;;;3.10;1.00;;;-16.00;99.90;;;;;;2219232;64;20472;-32
2022/01/04 01:04:31;;;;;;;3.83;1.53;;;-16.10;99.90;;;;;;2219517;64;20108;-32
2022/01/04 01:07:02;;;;;;;5.17;1.90;;;-16.00;99.90;;;;;;2219417;64;20464;-30
2022/01/04 01:09:42;;;;;;;3.97;1.10;;;-16.10;99.90;;;;;;2219337;64;20101;-31
2022/01/04 01:12:20;;;;;;;4.40;1.10;;;-16.20;99.90;;;;;;2219156;64;20139;-31
2022/01/04 01:14:55;;;;;;;5.53;1.07;;;-16.40;99.90;;;;;;2219229;64;20170;-31
2022/01/04 01:17:26;;;;;;;;;;;-16.50;99.90;;;;;;2219744;64;20085;-31
2022/01/04 01:19:58;;;;;;;5.00;1.27;;;-16.70;99.60;;;;;;2219137;64;19961;-36
2022/01/04 01:22:35;;;;;;;2.47;1.23;;;-16.70;99.90;;;;;;2219052;64;20104;-29
2022/01/04 01:25:09;;;;;;;4.63;0.80;;;-16.80;99.90;;;;;;2217774;64;20089;-31
2022/01/04 01:27:41;;;;;;;4.77;1.07;;;-16.80;99.90;;;;;;2215068;64;20108;-29
2022/01/04 01:30:14;;;;;;;3.73;0.97;;;-16.80;99.90;;;;;;2212175;64;20095;-30
2022/01/04 01:32:46;;;;;;;4.43;1.20;;;-16.80;99.90;;;;;;2212116;64;20638;-32
2022/01/04 01:35:20;;;;;;;3.10;0.90;;;-16.80;99.90;;;;;;2214999;64;20150;-33
2022/01/04 01:37:52;;;;;;;3.53;1.23;;;-16.90;99.90;;;;;;2215151;64;20240;-32
2022/01/04 01:40:24;;;;;;;1.40;0.70;;;-16.90;99.70;;;;;;2215201;64;20120;-32
2022/01/04 01:42:59;;;;;;;2.25;1.00;;;-17.00;99.60;;;;;;2212094;64;20172;-34
2022/01/04 01:45:31;;;;;;;4.60;1.27;;;-17.10;99.60;;;;;;2215057;64;20604;-34
2022/01/04 01:48:03;;;;;;;4.63;0.97;;;-17.10;99.60;;;;;;2215103;64;20183;-31
2022/01/04 01:50:36;;;;;;;6.63;1.23;;;-17.20;99.50;;;;;;2215039;64;20792;-30
2022/01/04 01:53:09;;;;;;;3.47;0.97;;;-17.20;99.60;;;;;;2218115;64;20104;-33
2022/01/04 01:55:41;;;;;;;2.30;0.67;;;-17.30;99.40;;;;;;2215107;64;20089;-34
2022/01/04 01:58:16;;;;;;;1.43;0.73;;;-17.40;98.90;;;;;;2214890;64;20097;-33
2022/01/04 02:00:47;;;;;;;;;;;-17.40;98.90;;;;;;2212188;64;20085;-32
2022/01/04 02:03:19;;;;;;;2.13;1.10;;;-17.50;98.70;;;;;;2212174;64;20468;-33
2022/01/04 02:05:52;;;;;;;2.93;1.20;;;-17.60;98.40;;;;;;2215156;64;20099;-33
2022/01/04 02:08:24;;;;;;;3.57;0.43;;;-17.70;98.20;;;;;;2212363;64;20166;-30
2022/01/04 02:10:57;;;;;;;2.87;1.23;;;-17.80;98.00;;;;;;2216284;64;20093;-34
2022/01/04 02:13:30;;;;;;;8.93;2.10;;;-17.90;97.80;;;;;;2213068;64;20096;-34
2022/01/04 02:16:02;;;;;;;0.57;0.40;;;-17.90;97.90;;;;;;2216190;64;20097;-33
2022/01/04 02:18:37;;;;;;;1.80;0.80;;;-18.00;97.90;;;;;;2216249;64;20077;-33
2022/01/04 02:21:09;;;;;;;9.67;1.23;;;-18.10;98.20;;;;;;2216088;64;21050;-33
2022/01/04 02:23:41;;;;;;;19.77;7.13;;;-18.10;98.20;;;;;;2216068;64;20089;-30
2022/01/04 02:26:15;;;;;;;4.73;0.77;;;-18.20;97.90;;;;;;2217714;64;20085;-33
2022/01/04 02:28:47;;;;;;;1.37;0.93;;;-18.30;97.90;;;;;;2216109;64;20085;-34
2022/01/04 02:31:18;;;;;;;2.37;0.27;;;-18.40;98.00;;;;;;2219190;64;20093;-35
2022/01/04 02:33:50;;;;;;;3.50;0.90;;;-18.30;98.50;;;;;;2219185;64;20092;-32
2022/01/04 02:36:22;;;;;;;1.37;0.30;;;-18.30;98.70;;;;;;2219169;64;20565;-30
2022/01/04 02:38:54;;;;;;;3.43;0.57;;;-18.20;99.00;;;;;;2215939;64;20547;-32
2022/01/04 02:41:27;;;;;;;2.80;0.70;;;-18.20;99.00;;;;;;2219204;64;20085;-32
2022/01/04 02:44:00;;;;;;;1.80;1.00;;;-18.10;99.10;;;;;;2219236;64;20112;-32
2022/01/04 02:46:33;;;;;;;4.77;1.70;;;-18.20;98.80;;;;;;2219206;64;20077;-30
2022/01/04 02:49:05;;;;;;;4.87;0.90;;;-18.20;98.50;;;;;;2219218;64;20081;-34
2022/01/04 02:51:41;;;;;;;0.00;0.00;;;-18.30;98.30;;;;;;2219090;64;20105;-33
2022/01/04 02:54:13;;;;;;;0.60;0.20;;;-18.30;98.50;;;;;;2219138;64;20141;-36
2022/01/04 02:56:45;;;;;;;0.10;0.10;;;-18.40;98.50;;;;;;2219088;64;20166;-34
2022/01/04 02:59:17;;;;;;;0.10;0.10;;;-18.40;98.50;;;;;;2219129;64;20085;-31
2022/01/04 03:01:51;;;;;;;1.87;0.80;;;-18.40;98.50;;;;;;2219066;64;20093;-31
2022/01/04 03:04:22;;;;;;;1.17;1.07;;;-18.40;98.60;;;;;;2219113;64;20081;-33
2022/01/04 03:06:58;;;;;;;0.10;0.10;;;-18.50;98.50;;;;;;2219114;64;20081;-33
2022/01/04 03:09:30;;;;;;;4.60;1.23;;;-18.50;98.50;;;;;;2219280;64;20097;-33
2022/01/04 03:12:02;;;;;;;1.53;0.87;;;-18.50;98.50;;;;;;2216144;64;20089;-31
2022/01/04 03:14:34;;;;;;;2.27;0.70;;;-18.60;98.10;;;;;;2219207;64;20096;-32
2022/01/04 03:17:06;;;;;;;3.13;1.20;;;-18.60;98.00;;;;;;2215993;64;20096;-32
2022/01/04 03:19:41;;;;;;;5.47;1.15;;;-18.70;97.70;;;;;;2219075;64;20561;-33
2022/01/04 03:22:13;;;;;;;3.90;1.20;;;-18.80;97.50;;;;;;2219057;64;20112;-33
2022/01/04 03:24:46;;;;;;;5.53;3.13;;;-18.70;97.90;;;;;;2219242;64;20085;-32
2022/01/04 03:27:21;;;;;;;5.37;2.50;;;-18.70;98.70;;;;;;2219834;64;20085;-32
2022/01/04 03:29:53;;;;;;;11.83;2.43;;;-18.60;98.90;;;;;;2216765;64;20088;-30
2022/01/04 03:32:26;;;;;;;1.60;1.03;;;-18.60;99.00;;;;;;2222882;64;20096;-33
2022/01/04 03:34:58;;;;;;;1.33;0.63;;;-18.30;99.80;;;;;;2219898;64;20088;-33
2022/01/04 03:37:33;;;;;;;5.47;1.70;;;-18.20;99.90;;;;;;2220201;64;20103;-32
2022/01/04 03:40:07;;;;;;;7.20;2.50;;;-18.20;99.90;;;;;;2217627;64;20085;-32
2022/01/04 03:42:42;;;;;;;7.18;1.52;;;-18.40;99.40;;;;;;2220246;64;20084;-32
2022/01/04 03:45:16;;;;;;;6.67;1.10;;;-18.50;99.10;;;;;;2220309;64;20173;-33
2022/01/04 03:47:49;;;;;;;3.92;1.75;;;-18.60;99.40;;;;;;2220428;64;20081;-32
2022/01/04 03:50:22;;;;;;;3.83;1.30;;;-18.70;99.10;;;;;;2220321;64;20107;-34
2022/01/04 03:52:53;;;;;;;1.90;1.00;;;-18.80;98.90;;;;;;2220412;64;20164;-33
2022/01/04 03:55:27;;;;;;;2.37;0.90;;;-18.80;98.80;;;;;;2223471;64;20100;-32
2022/01/04 03:57:59;;;;;;;3.00;1.47;;;-18.80;99.00;;;;;;2223456;64;20120;-38
2022/01/04 04:00:35;;;;;;;6.57;1.97;;;-18.90;99.00;;;;;;2223436;64;20093;-33
2022/01/04 04:03:06;;;;;;;8.13;3.67;;;-18.90;98.70;;;;;;2220172;64;20089;-38
2022/01/04 04:05:40;;;;;;;4.72;2.08;;;-19.00;98.40;;;;;;2223264;64;20143;-31
2022/01/04 04:08:13;;;;;;;6.13;2.30;;;-19.00;98.20;;;;;;2220168;64;20095;-31
2022/01/04 04:10:45;;;;;;;4.17;1.10;;;-19.00;98.10;;;;;;2223285;64;20464;-30
2022/01/04 04:13:19;;;;;;;6.27;1.97;;;-19.10;98.00;;;;;;2223229;64;20106;-32
2022/01/04 04:15:51;;;;;;;2.37;0.77;;;-19.20;97.80;;;;;;2217146;64;20084;-38
2022/01/04 04:18:23;;;;;;;2.00;0.83;;;-19.20;97.70;;;;;;2220369;64;20104;-36
2022/01/04 04:20:59;;;;;;;3.53;1.30;;;-19.20;97.70;;;;;;2223319;64;20088;-33
2022/01/04 04:23:31;;;;;;;1.60;0.83;;;-19.20;97.70;;;;;;2220254;64;20085;-35
2022/01/04 04:26:04;;;;;;;0.00;0.00;;;-19.20;97.80;;;;;;2220229;64;20156;-36
2022/01/04 04:28:38;;;;;;;0.80;0.50;;;-19.20;98.00;;;;;;2223314;64;20092;-36
2022/01/04 04:31:10;;;;;;;5.57;1.73;;;-19.10;98.50;;;;;;2223055;64;20104;-31
2022/01/04 04:33:42;;;;;;;2.50;1.07;;;-19.10;98.30;;;;;;2223283;64;20081;-32
2022/01/04 04:36:21;;;;;;;3.67;0.88;;;-19.20;98.00;;;;;;2223232;64;20158;-32
2022/01/04 04:38:53;;;;;;;1.67;1.50;;;-19.20;97.90;;;;;;2223236;64;20100;-32
2022/01/04 04:41:25;;;;;;;6.77;1.97;;;-19.20;97.80;;;;;;2223152;64;20492;-32
2022/01/04 04:43:57;;;;;;;5.53;1.73;;;-19.20;97.80;;;;;;2223282;64;20205;-31
2022/01/04 04:46:32;;;;;;;6.03;1.50;;;-19.20;97.80;;;;;;2223260;64;20085;-32
2022/01/04 04:49:05;;;;;;;0.67;0.10;;;-19.20;97.90;;;;;;2223153;64;20096;-33
2022/01/04 04:51:37;;;;;;;1.60;0.30;;;-19.20;98.00;;;;;;2223330;64;20177;-32
2022/01/04 04:54:09;;;;;;;4.10;0.77;;;-19.10;98.20;;;;;;2223449;64;20077;-33
2022/01/04 04:56:40;;;;;;;2.20;1.30;;;-19.10;98.50;;;;;;2223085;64;20127;-32
2022/01/04 04:59:12;;;;;;;10.33;3.00;;;-19.10;98.20;;;;;;2223138;64;20472;-31
2022/01/04 05:01:44;;;;;;;1.67;1.13;;;-19.20;98.00;;;;;;2223069;64;20107;-31
2022/01/04 05:04:18;;;;;;;0.93;0.40;;;-19.10;97.80;;;;;;2223134;64;20077;-32
2022/01/04 05:06:53;;;;;;;11.33;0.67;;;-19.00;98.30;;;;;;2223123;64;20183;-37
2022/01/04 05:09:25;;;;;;;3.10;1.17;;;-18.70;98.90;;;;;;2222979;64;20108;-32
2022/01/04 05:12:00;;;;;;;3.13;1.43;;;-18.70;98.90;;;;;;2223096;64;20652;-32
2022/01/04 05:14:34;;;;;;;1.02;0.40;;;-18.60;99.00;;;;;;2222990;64;20104;-36
2022/01/04 05:17:06;;;;;;;7.60;2.87;;;-18.50;99.00;;;;;;2220084;64;20080;-31
2022/01/04 05:19:37;;;;;;;2.40;0.93;;;-18.50;99.10;;;;;;2223147;64;20145;-34
2022/01/04 05:22:12;;;;;;;6.40;1.63;;;-18.60;98.60;;;;;;2223019;64;20103;-37
2022/01/04 05:24:47;;;;;;;5.77;1.53;;;-18.60;98.40;;;;;;2223116;64;20089;-32
2022/01/04 05:27:21;;;;;;;3.05;0.95;;;-18.70;98.20;;;;;;2220000;64;20225;-33
2022/01/04 05:29:53;;;;;;;2.10;0.87;;;-18.70;98.00;;;;;;2219975;64;20096;-32
2022/01/04 05:32:25;;;;;;;1.67;0.40;;;-18.70;97.90;;;;;;2223115;64;20111;-32
2022/01/04 05:34:57;;;;;;;2.90;1.13;;;-18.70;98.20;;;;;;2223048;64;20154;-33
2022/01/04 05:37:29;;;;;;;1.97;1.20;;;-18.70;97.90;;;;;;2219953;64;20096;-31
2022/01/04 05:40:02;;;;;;;0.10;0.10;;;-18.70;97.70;;;;;;2223086;64;20080;-34
2022/01/04 05:42:33;;;;;;;4.30;1.20;;;-18.70;97.90;;;;;;2219727;64;20461;-33
2022/01/04 05:45:07;;;;;;;3.03;1.45;;;-18.70;97.80;;;;;;2223002;64;20167;-40
2022/01/04 05:47:41;;;;;;;3.70;1.30;;;-18.60;97.70;;;;;;2219869;64;20526;-35
2022/01/04 05:50:13;;;;;;;3.07;1.07;;;-18.50;97.80;;;;;;2220096;64;20166;-37
2022/01/04 05:52:46;;;;;;;4.03;1.23;;;-18.40;97.80;;;;;;2216802;64;20139;-33
2022/01/04 05:55:19;;;;;;;1.97;0.73;;;-18.40;97.60;;;;;;2219878;64;20155;-32
2022/01/04 05:57:53;;;;;;;4.47;1.70;;;-18.30;97.70;;;;;;2216752;64;20081;-38
2022/01/04 06:00:25;;;;;;;6.40;1.47;;;-18.20;97.60;;;;;;2219645;64;20088;-35
2022/01/04 06:03:00;;;;;;;2.93;0.90;;;-18.10;97.60;;;;;;2222992;64;20102;-33
2022/01/04 06:05:32;;;;;;;4.00;1.10;;;-17.90;97.60;;;;;;2219805;64;20103;-32
2022/01/04 06:08:04;;;;;;;3.40;1.00;;;-17.80;97.60;;;;;;2222953;64;20192;-34
2022/01/04 06:10:39;;;;;;;3.43;1.37;;;-17.80;97.40;;;;;;2219990;64;20099;-32
2022/01/04 06:16:02;;;;;;;2.50;1.17;;;-17.40;98.20;;;;;;2219921;64;20115;-32
2022/01/04 06:18:39;;;;;;;0.90;0.70;;;-17.10;99.00;;;;;;2220014;64;20088;-32
2022/01/04 06:21:17;;;;;;;4.43;1.03;;;-17.00;98.90;;;;;;2217028;64;20124;-34
2022/01/04 06:23:48;;;;;;;;;;;-16.80;99.20;;;;;;2220155;64;20073;-31
2022/01/04 06:26:22;;;;;;;8.00;2.53;;;-16.60;99.50;;;;;;2219696;64;19984;-31
2022/01/04 06:29:01;;;;;;;7.23;1.77;;;-16.20;99.90;;;;;;2220066;64;20186;-31
2022/01/04 06:31:33;;;;;;;6.87;2.10;;;-15.80;99.90;;;;;;2222842;64;20100;-31
2022/01/04 06:34:05;;;;;;;7.77;2.37;;;-15.60;99.90;;;;;;2222832;64;20092;-32
2022/01/04 06:36:36;;;;;;;8.03;3.10;;;-15.40;99.90;;;;;;2222848;64;20085;-32
2022/01/04 06:39:09;;;;;;;9.60;3.73;;;-15.10;99.90;;;;;;2222879;64;20076;-32
2022/01/04 06:41:41;;;;;;;10.27;2.80;;;-15.00;99.90;;;;;;2219884;64;20127;-32
2022/01/04 06:44:17;;;;;;;12.07;4.90;;;-15.20;99.90;;;;;;2222808;64;20128;-33
2022/01/04 06:46:49;;;;;;;8.00;2.67;;;-14.90;99.90;;;;;;2223034;64;20081;-33
2022/01/04 06:49:25;;;;;;;9.53;3.70;;;-14.70;99.90;;;;;;2222943;64;20099;-30
2022/01/04 06:51:58;;;;;;;9.67;3.33;;;-14.80;99.90;;;;;;2222882;64;20096;-33
2022/01/04 06:54:33;;;;;;;18.00;3.13;;;-14.70;99.90;;;;;;2222962;64;20096;-33
2022/01/04 06:57:06;;;;;;;14.30;4.30;;;-14.40;99.90;;;;;;2222806;64;20291;-31
2022/01/04 06:59:46;;;;;;;11.80;3.87;;;-14.40;99.90;;;;;;2222861;64;20085;-36
2022/01/04 07:02:19;;;;;;;8.33;2.20;;;-14.30;99.90;;;;;;2222948;64;20101;-33
2022/01/04 07:04:52;;;;;;;11.77;4.23;;;-14.10;99.90;;;;;;2219764;64;20134;-37
2022/01/04 07:07:27;;;;;;;12.37;4.33;;;-14.00;99.90;;;;;;2222948;64;20174;-33
2022/01/04 07:10:01;;;;;;;13.70;4.93;;;-13.60;99.90;;;;;;2222920;64;20092;-33
2022/01/04 07:12:33;;;;;;;11.05;3.95;;;-13.60;99.90;;;;;;2223507;64;20096;-31
2022/01/04 07:15:06;;;;;;;13.63;4.73;;;-13.40;99.90;;;;;;2223642;64;20081;-30
2022/01/04 07:17:43;;;;;;;11.47;3.53;;;-13.30;99.90;;;;;;2223361;64;20092;-31
2022/01/04 07:20:10;;;;;;;8.27;3.60;;;-13.10;99.90;;;;;;2221202;64;20092;-30
2022/01/04 07:22:38;;;;;;;5.87;3.33;;;-12.90;99.90;;;;;;2220897;64;20151;-31
2022/01/04 07:25:06;;;;;;;12.63;4.60;;;-12.70;99.90;;;;;;2220423;64;20115;-32
2022/01/04 07:27:36;;;;;;;8.83;3.97;;;-12.40;99.90;;;;;;2221172;64;20178;-33
2022/01/04 07:30:04;;;;;;;15.43;5.47;;;-12.50;99.90;;;;;;2221156;64;20548;-29
2022/01/04 07:32:35;;;;;;;8.23;3.17;;;-12.80;99.40;;;;;;2221025;64;20120;-33
2022/01/04 07:35:01;;;;;;;7.50;2.67;;;-13.00;99.30;;;;;;2221298;64;20112;-32
2022/01/04 07:37:28;;;;;;;13.87;4.47;;;-12.80;98.90;;;;;;2220888;64;20100;-34
2022/01/04 07:39:55;;;;;;;11.40;3.67;;;-12.40;99.40;;;;;;2221175;64;20084;-30
2022/01/04 07:42:22;;;;;;;16.83;4.63;;;-12.30;98.90;;;;;;2220747;64;20093;-36
2022/01/04 07:44:48;;;;;;;17.93;6.07;;;-11.90;98.90;;;;;;2221177;64;20092;-32
2022/01/04 07:47:17;;;;;;;15.77;6.17;;;-11.40;99.00;;;;;;2221153;64;20156;-33
2022/01/04 07:49:43;;;;;;;21.80;8.13;;;-11.30;97.20;;;;;;2221125;64;20085;-30
2022/01/04 07:52:10;;;;;;;15.37;5.57;;;-10.80;97.50;;;;;;2220854;64;20476;-29
2022/01/04 07:54:36;;;;;;;13.17;6.00;;;-11.30;95.50;;;;;;2220895;64;20105;-31
2022/01/04 07:57:06;;;;;;;10.73;4.90;;;-11.50;95.50;;;;;;2220808;64;20095;-34
2022/01/04 07:59:34;;;;;;;11.70;5.17;;;-11.90;94.80;;;;;;2220990;64;20108;-32
2022/01/04 08:02:05;;;;;;;10.30;4.50;;;-12.40;94.90;;;;;;2220703;64;20660;-32
2022/01/04 08:04:37;;;;;;;10.57;5.13;;;-12.60;95.40;;;;;;2220930;64;20084;-34
2022/01/04 08:07:08;;;;;;;11.07;5.23;;;-12.00;96.50;;;;;;2220093;64;20103;-33
2022/01/04 08:09:39;;;;;;;13.17;5.97;;;-11.80;95.70;;;;;;2220895;64;20080;-32
2022/01/04 08:12:11;;;;;;;12.17;5.43;;;-11.60;95.40;;;;;;2220799;64;20501;-34
2022/01/04 08:14:42;;;;;;;9.97;5.27;;;-11.50;95.20;;;;;;2221079;64;20226;-31
2022/01/04 08:17:19;;;;;;;22.13;6.00;;;-11.30;95.30;;;;;;2220795;64;20115;-32
2022/01/04 08:19:47;;;;;;;12.73;5.43;;;-11.30;94.60;;;;;;2221036;64;20465;-32
2022/01/04 08:22:19;;;;;;;15.50;6.00;;;-11.30;94.80;;;;;;2220703;64;20096;-33
2022/01/04 08:24:52;;;;;;;15.50;5.67;;;-11.30;95.30;;;;;;2221033;64;20097;-36
2022/01/04 08:27:28;;;;;;;11.37;4.53;;;-11.50;94.60;;;;;;2220844;64;20103;-45
2022/01/04 08:29:54;;;;;;;12.70;4.10;;;-11.70;94.60;;;;;;2221028;64;20092;-35
2022/01/04 08:32:27;;;;;;;11.20;4.43;;;-12.00;94.50;;;;;;2221018;64;20088;-34
2022/01/04 08:35:01;;;;;;;14.10;5.20;;;-12.00;95.00;;;;;;2220862;64;20472;-45
2022/01/04 08:37:30;;;;;;;18.20;5.57;;;-11.40;95.80;;;;;;2220045;64;20115;-35
2022/01/04 08:39:59;;;;;;;15.27;6.57;;;-11.30;94.20;;;;;;2221033;64;20141;-31
2022/01/04 08:42:26;;;;;;;16.80;5.93;;;-11.50;94.30;;;;;;2220739;64;20189;-36
2022/01/04 08:44:55;;;;;;;9.83;5.50;;;-11.30;95.00;;;;;;2220783;64;20102;-33
2022/01/04 08:47:27;;;;;;;15.70;5.83;;;-11.30;94.40;;;;;;2220613;64;20210;-32
2022/01/04 08:49:53;;;;;;;13.00;5.70;;;-11.30;94.60;;;;;;2221057;64;20104;-32
2022/01/04 08:52:20;;;;;;;13.13;4.67;;;-11.20;94.60;;;;;;2220727;64;20107;-34
2022/01/04 08:54:46;;;;;;;11.20;5.43;;;-11.40;94.50;;;;;;2220890;64;20100;-33
2022/01/04 08:57:13;;;;;;;17.40;5.10;;;-11.60;95.00;;;;;;2220639;64;20103;-36
2022/01/04 08:59:39;;;;;;;14.50;5.97;;;-11.40;95.10;;;;;;2220733;64;20587;-29
2022/01/04 09:02:06;;;;;;;14.67;6.33;;;-11.30;95.40;;;;;;2220672;64;20123;-33
2022/01/04 09:04:33;;;;;;;16.77;7.00;;;-10.80;95.00;;;;;;2220889;64;20092;-32
2022/01/04 09:07:06;;;;;;;10.87;4.97;;;-10.70;94.10;;;;;;2220638;64;20103;-31
2022/01/04 09:09:32;;;;;;;16.97;5.80;;;-10.80;93.20;;;;;;2220761;64;20089;-31
2022/01/04 09:11:59;;;;;;;12.70;4.90;;;-11.10;92.80;;;;;;2220815;64;20104;-33
2022/01/04 09:14:39;;;;;;;20.70;8.43;;;-11.10;93.10;;;;;;2220917;64;20111;-30
2022/01/04 09:19:54;;;;;;;16.77;8.20;;;-11.40;92.90;;;;;;2215113;64;20662;-31
2022/01/04 09:22:20;;;;;;;25.77;8.60;;;-11.50;93.60;;;;;;2215084;64;20505;-35
2022/01/04 09:24:47;;;;;;;23.90;8.57;;;-11.80;93.80;;;;;;2215024;64;20077;-33
2022/01/04 09:27:13;;;;;;;19.97;9.57;;;-11.90;94.00;;;;;;2214963;64;20115;-33
2022/01/04 09:29:40;;;;;;;21.53;8.73;;;-11.90;94.90;;;;;;2205418;64;20259;-30
2022/01/04 09:32:16;;;;;;;22.27;7.20;;;-11.80;94.30;;;;;;2214767;64;20088;-34
2022/01/04 09:34:48;;;;;;;21.83;8.80;;;-12.10;94.70;;;;;;2214285;64;20093;-38
2022/01/04 09:37:15;;;;;;;22.30;9.23;;;-12.00;95.20;;;;;;2214999;64;20089;-35
2022/01/04 09:39:43;;;;;;;19.07;9.63;;;-11.60;95.30;;;;;;2215264;64;20564;-33
2022/01/04 09:42:10;;;;;;;20.93;8.73;;;-11.30;94.80;;;;;;2214971;64;20090;-31
2022/01/04 09:44:38;;;;;;;23.93;10.73;;;-11.30;93.90;;;;;;2215184;64;20450;-32
2022/01/04 09:47:05;;;;;;;24.27;10.07;;;-11.30;93.50;;;;;;2215041;64;20096;-33
2022/01/04 09:49:33;;;;;;;19.67;7.47;;;-11.60;93.40;;;;;;2215208;64;20097;-34
2022/01/04 09:52:00;;;;;;;15.83;7.43;;;-12.10;93.90;;;;;;2219037;64;20104;-44
2022/01/04 09:54:27;;;;;;;27.13;8.90;;;-12.20;94.30;;;;;;2215972;64;20138;-34
2022/01/04 09:56:54;;;;;;;19.33;8.47;;;-11.70;95.30;;;;;;2215600;64;20088;-32
2022/01/04 09:59:20;;;;;;;17.23;7.03;;;-11.80;94.10;;;;;;2218951;64;20101;-32
2022/01/04 10:01:53;;;;;;;23.07;7.83;;;-11.80;93.50;;;;;;2218986;64;20088;-33
2022/01/04 10:04:24;;;;;;;15.43;7.40;;;-11.80;94.10;;;;;;2219039;64;20159;-33
2022/01/04 10:07:02;;;;;;;20.17;6.87;;;-11.40;93.50;;;;;;2218767;64;20151;-41
2022/01/04 10:09:36;;;;;;;18.00;6.27;;;-11.60;93.20;;;;;;2219116;64;20103;-32
2022/01/04 10:12:05;;;;;;;22.58;5.40;;;-11.70;93.50;;;;;;2219445;64;20181;-32
2022/01/04 10:14:37;;;;;;;17.70;6.37;;;-11.70;93.60;;;;;;2220360;64;20097;-32
2022/01/04 10:17:06;;;;;;;17.23;6.57;;;-11.70;93.60;;;;;;2219657;64;20476;-38
2022/01/04 10:19:46;;;;;;;17.67;7.70;;;-11.40;94.20;;;;;;2220488;64;20076;-34
2022/01/04 10:22:25;;;;;;;20.53;7.87;;;-11.60;93.80;;;;;;2220230;64;20100;-31
2022/01/04 10:25:03;;;;;;;16.03;5.30;;;-11.90;93.30;;;;;;2220681;64;20080;-36
2022/01/04 10:27:37;;;;;;;10.83;3.50;;;-12.00;93.10;;;;;;2220693;64;20081;-33
2022/01/04 10:30:13;;;;;;;9.57;3.33;;;-12.20;93.40;;;;;;2220533;64;20080;-35
2022/01/04 10:32:50;;;;;;;12.53;5.50;;;-12.40;93.00;;;;;;2214631;64;20493;-32
2022/01/04 10:35:24;;;;;;;11.83;6.00;;;-12.40;93.50;;;;;;2215041;64;20574;-34
2022/01/04 10:37:53;;;;;;;18.07;6.80;;;-12.40;93.80;;;;;;2211761;64;20100;-33
2022/01/04 10:40:20;;;;;;;10.53;5.13;;;-12.80;93.40;;;;;;2207145;64;20187;-32
2022/01/04 10:42:47;;;;;;;11.37;5.17;;;-12.90;93.90;;;;;;2206957;64;20082;-30
2022/01/04 10:45:25;;;;;;;13.23;4.37;;;-13.20;93.90;;;;;;2207280;64;20104;-32
2022/01/04 10:47:52;;;;;;;12.30;4.57;;;-13.40;94.70;;;;;;2207860;64;20152;-32
2022/01/04 10:50:34;;;;;;;15.53;5.83;;;-13.60;94.90;;;;;;2208120;64;20108;-31
2022/01/04 10:53:05;;;;;;;15.00;4.97;;;-13.70;95.20;;;;;;2208035;64;20117;-33
2022/01/04 10:55:38;;;;;;;13.70;5.37;;;-13.70;95.30;;;;;;2208062;64;20174;-31
2022/01/04 10:58:06;;;;;;;12.93;4.93;;;-14.00;95.40;;;;;;2207703;64;20106;-32
2022/01/04 11:00:33;;;;;;;14.83;5.20;;;-13.90;95.70;;;;;;2207934;64;20094;-32
2022/01/04 11:03:02;;;;;;;13.30;4.73;;;-13.90;96.10;;;;;;2209206;64;20097;-35
2022/01/04 11:05:29;;;;;;;15.27;6.20;;;-13.90;96.10;;;;;;2215738;64;20591;-33
2022/01/04 11:08:13;;;;;;;24.90;4.93;;;-14.00;96.10;;;;;;2215353;64;20096;-33
2022/01/04 11:10:43;;;;;;;13.37;4.73;;;-13.80;96.50;;;;;;2216067;64;20453;-33
2022/01/04 11:13:11;;;;;;;14.97;5.00;;;-13.80;96.50;;;;;;2219217;64;20089;-34
2022/01/04 11:15:38;;;;;;;16.97;6.10;;;-13.70;96.40;;;;;;2219676;64;20636;-32
2022/01/04 11:18:11;;;;;;;14.73;5.13;;;-13.70;96.40;;;;;;2201393;64;20102;-31
2022/01/04 11:20:39;;;;;;;12.60;4.57;;;-13.70;96.30;;;;;;2207645;64;20078;-35
2022/01/04 11:23:06;;;;;;;21.73;6.33;;;-13.60;96.70;;;;;;2207777;64;20146;-34
2022/01/04 11:25:32;;;;;;;16.03;6.37;;;-13.60;96.50;;;;;;2207863;64;20602;-33
2022/01/04 11:28:01;;;;;;;15.87;5.37;;;-13.70;96.30;;;;;;2204601;64;20098;-32
2022/01/04 11:30:48;;;;;;;16.80;4.83;;;-13.70;96.50;;;;;;2207758;64;20101;-35
2022/01/04 11:33:26;;;;;;;14.87;6.00;;;-13.70;96.70;;;;;;2204834;64;20513;-33
2022/01/04 11:35:54;;;;;;;19.27;5.83;;;-13.90;96.70;;;;;;2207674;64;20086;-32
2022/01/04 11:38:33;;;;;;;15.97;6.43;;;-13.90;97.00;;;;;;2204441;64;20248;-32
2022/01/04 11:41:05;;;;;;;11.30;5.93;;;-14.10;97.00;;;;;;2207801;64;20656;-37
2022/01/04 11:43:35;;;;;;;14.43;6.53;;;-13.80;97.70;;;;;;2204684;64;20082;-34
2022/01/04 11:46:35;;;;;;;15.30;5.23;;;-13.90;97.00;;;;;;2210808;64;20094;-35
2022/01/04 11:49:13;;;;;;;13.88;6.38;;;-13.90;97.20;;;;;;2211660;64;20099;-33
2022/01/04 11:51:44;;;;;;;14.27;6.50;;;-14.00;97.20;;;;;;2211591;64;20474;-33
2022/01/04 11:54:23;;;;;;;19.17;6.00;;;-13.90;97.50;;;;;;2211623;64;20612;-33
2022/01/04 11:56:59;;;;;;;15.80;5.77;;;-13.90;97.70;;;;;;2215593;64;20109;-32
2022/01/04 11:59:26;;;;;;;8.33;3.93;;;-13.90;97.60;;;;;;2216758;64;20170;-34
2022/01/04 12:01:53;;;;;;;9.90;4.10;;;-13.90;97.70;;;;;;2216986;64;20108;-34
2022/01/04 12:04:47;;;;;;;14.40;5.37;;;-13.90;97.70;;;;;;2215052;64;20101;-37
2022/01/04 12:07:44;;;;;;;21.47;6.57;;;-13.90;97.80;;;;;;2215145;64;20085;-32
2022/01/04 12:10:21;;;;;;;17.50;5.63;;;-13.80;97.80;;;;;;2213235;64;20089;-31
2022/01/04 12:13:16;;;;;;;18.13;7.03;;;-13.90;97.80;;;;;;2215220;64;20602;-33
2022/01/04 12:15:54;;;;;;;22.27;9.50;;;-13.70;98.50;;;;;;2215188;64;20214;-32
2022/01/04 12:18:25;;;;;;;12.33;5.43;;;-13.60;98.90;;;;;;2215244;64;20073;-34
2022/01/04 12:21:00;;;;;;;9.50;4.17;;;-13.40;98.80;;;;;;2219141;64;20096;-33
2022/01/04 12:23:30;;;;;;;15.38;3.97;;;-13.50;98.50;;;;;;2218851;64;20668;-33
2022/01/04 12:26:11;;;;;;;18.70;5.73;;;-13.70;98.00;;;;;;2219314;64;20093;-32
2022/01/04 12:28:55;;;;;;;8.10;2.87;;;-13.90;98.20;;;;;;2219180;64;20184;-32
2022/01/04 12:31:27;;;;;;;12.70;5.63;;;-13.80;98.40;;;;;;2219204;64;20081;-32
2022/01/04 12:33:58;;;;;;;18.57;6.37;;;-14.00;98.30;;;;;;2219373;64;20313;-32
2022/01/04 12:36:25;;;;;;;17.40;6.33;;;-14.00;98.40;;;;;;2219229;64;20099;-38
2022/01/04 12:38:52;;;;;;;18.33;5.20;;;-14.10;98.40;;;;;;2218838;64;20104;-35
2022/01/04 12:41:24;;;;;;;14.30;5.50;;;-14.10;98.50;;;;;;2218263;64;20111;-33
2022/01/04 12:43:54;;;;;;;13.00;5.87;;;-14.10;98.70;;;;;;2215332;64;20097;-32
2022/01/04 12:46:31;;;;;;;14.60;5.80;;;-14.10;98.60;;;;;;2215320;64;20101;-40
2022/01/04 12:49:13;;;;;;;17.50;5.57;;;-14.00;99.00;;;;;;2215199;64;20088;-35
2022/01/04 12:51:53;;;;;;;13.93;4.47;;;-14.00;98.90;;;;;;2212252;64;20116;-34
2022/01/04 12:54:25;;;;;;;13.33;5.03;;;-14.10;98.80;;;;;;2215245;64;20152;-31
2022/01/04 12:57:06;;;;;;;19.33;7.30;;;-14.10;98.70;;;;;;2215275;64;20077;-35
2022/01/04 12:59:50;;;;;;;18.33;6.03;;;-14.20;98.70;;;;;;2220317;64;20092;-35
2022/01/04 13:02:24;;;;;;;19.30;8.47;;;-14.30;98.60;;;;;;2217031;64;20110;-32
2022/01/04 13:04:57;;;;;;;16.63;6.47;;;-14.30;98.60;;;;;;2220537;64;20080;-36
2022/01/04 13:07:45;;;;;;;27.43;8.17;;;-14.30;98.70;;;;;;2220114;64;20081;-31